<?xml version="1.0" encoding="UTF-8" standalone="no" ?>
<gpx xmlns="http://www.topografix.com/GPX/1/1" xmlns:xsi="http://www.w3.org/2001/XMLSchema-instance" xsi:schemaLocation="http://www.topografix.com/GPX/1/1 http://www.topografix.com/GPX/1/1/gpx.xsd" version="1.1" creator="VisuGPX - https://www.visugpx.com">
  <metadata>
    <name>Argentina</name>
    <desc><![CDATA[Downloaded from eMap Software Version 2.75]]></desc>
  </metadata>
  <trk>
    <name><![CDATA[Argentina_130]]></name>
    <extensions>
      <line xmlns="http://www.topografix.com/GPX/gpx_style/0/2">
        <color>ff0000</color>
        <opacity>0.78</opacity>
        <width>0.6000</width>
      </line>
    </extensions>
    <trkseg>
      <trkpt lat="43.77065" lon="6.8162">
        <ele>1081.139893</ele>
        <time>2010-02-28T09:14:53Z</time>
      </trkpt>
      <trkpt lat="43.77065" lon="6.81614">
        <ele>1069.123535</ele>
        <time>2010-02-28T09:16:09Z</time>
      </trkpt>
      <trkpt lat="43.77065" lon="6.81614">
        <ele>1072.96875</ele>
        <time>2010-02-28T09:16:29Z</time>
      </trkpt>
      <trkpt lat="43.77065" lon="6.81618">
        <ele>1072.96875</ele>
        <time>2010-02-28T09:16:52Z</time>
      </trkpt>
      <trkpt lat="43.77054" lon="6.81616">
        <ele>1072.488037</ele>
        <time>2010-02-28T09:17:48Z</time>
      </trkpt>
      <trkpt lat="43.77069" lon="6.81631">
        <ele>1072.007324</ele>
        <time>2010-02-28T09:19:46Z</time>
      </trkpt>
      <trkpt lat="43.77065" lon="6.81605">
        <ele>1070.084717</ele>
        <time>2010-02-28T09:20:25Z</time>
      </trkpt>
      <trkpt lat="43.77063" lon="6.81601">
        <ele>1069.604248</ele>
        <time>2010-02-28T09:20:47Z</time>
      </trkpt>
      <trkpt lat="43.77067" lon="6.81594">
        <ele>1061.432861</ele>
        <time>2010-02-28T09:23:52Z</time>
      </trkpt>
      <trkpt lat="43.77054" lon="6.81573">
        <ele>1065.278076</ele>
        <time>2010-02-28T09:24:26Z</time>
      </trkpt>
      <trkpt lat="43.77041" lon="6.8156">
        <ele>1068.162109</ele>
        <time>2010-02-28T09:24:48Z</time>
      </trkpt>
      <trkpt lat="43.77035" lon="6.81567">
        <ele>1068.642822</ele>
        <time>2010-02-28T09:25:03Z</time>
      </trkpt>
      <trkpt lat="43.7703" lon="6.81562">
        <ele>1069.123535</ele>
        <time>2010-02-28T09:25:21Z</time>
      </trkpt>
      <trkpt lat="43.77013" lon="6.81504">
        <ele>1069.123535</ele>
        <time>2010-02-28T09:26:02Z</time>
      </trkpt>
      <trkpt lat="43.77005" lon="6.81517">
        <ele>1067.200684</ele>
        <time>2010-02-28T09:26:28Z</time>
      </trkpt>
      <trkpt lat="43.77007" lon="6.81511">
        <ele>1067.200684</ele>
        <time>2010-02-28T09:26:52Z</time>
      </trkpt>
      <trkpt lat="43.76994" lon="6.81474">
        <ele>1073.449463</ele>
        <time>2010-02-28T09:28:48Z</time>
      </trkpt>
    </trkseg>
  </trk>
</gpx>